sensor_id;sensor_type;location;lat;lon;timestamp;pressure;altitude;pressure_sealevel;temperature;humidity
57442;BME280;43284;47.042;15.498;2023-02-24T00:01:46;96736.47;;;3.60;97.77
57442;BME280;43284;47.042;15.498;2023-02-24T00:04:16;96733.88;;;3.60;98.29
57442;BME280;43284;47.042;15.498;2023-02-24T00:06:42;96733.84;;;3.62;98.02
57442;BME280;43284;47.042;15.498;2023-02-24T00:09:17;96729.59;;;3.61;98.05
57442;BME280;43284;47.042;15.498;2023-02-24T00:12:04;96726.09;;;3.62;98.40
57442;BME280;43284;47.042;15.498;2023-02-24T00:14:32;96721.84;;;3.61;98.44
57442;BME280;43284;47.042;15.498;2023-02-24T00:16:59;96719.25;;;3.61;98.12
57442;BME280;43284;47.042;15.498;2023-02-24T00:19:27;96723.56;;;3.60;98.12
57442;BME280;43284;47.042;15.498;2023-02-24T00:21:53;96706.25;;;3.62;98.63
57442;BME280;43284;47.042;15.498;2023-02-24T00:24:20;96709.75;;;3.61;98.43
57442;BME280;43284;47.042;15.498;2023-02-24T00:26:54;96710.59;;;3.62;98.25
57442;BME280;43284;47.042;15.498;2023-02-24T00:29:19;96708.00;;;3.62;98.64
57442;BME280;43284;47.042;15.498;2023-02-24T00:31:49;96701.09;;;3.62;98.43
57442;BME280;43284;47.042;15.498;2023-02-24T00:34:15;96703.78;;;3.59;98.72
57442;BME280;43284;47.042;15.498;2023-02-24T00:36:40;96706.41;;;3.58;98.78
57442;BME280;43284;47.042;15.498;2023-02-24T00:39:07;96700.34;;;3.59;98.74
57442;BME280;43284;47.042;15.498;2023-02-24T00:41:36;96709.00;;;3.56;98.68
57442;BME280;43284;47.042;15.498;2023-02-24T00:44:04;96697.88;;;3.54;98.76
57442;BME280;43284;47.042;15.498;2023-02-24T00:46:36;96697.88;;;3.54;99.15
57442;BME280;43284;47.042;15.498;2023-02-24T00:49:05;96694.69;;;3.46;98.39
57442;BME280;43284;47.042;15.498;2023-02-24T00:51:37;96692.28;;;3.38;98.25
57442;BME280;43284;47.042;15.498;2023-02-24T00:54:03;96683.81;;;3.35;98.26
57442;BME280;43284;47.042;15.498;2023-02-24T00:56:30;96682.31;;;3.26;98.50
57442;BME280;43284;47.042;15.498;2023-02-24T00:58:57;96699.63;;;3.22;98.08
57442;BME280;43284;47.042;15.498;2023-02-24T01:01:26;96692.84;;;3.18;98.29
57442;BME280;43284;47.042;15.498;2023-02-24T01:03:53;96690.47;;;3.11;98.01
57442;BME280;43284;47.042;15.498;2023-02-24T01:06:24;96681.97;;;3.07;97.92
57442;BME280;43284;47.042;15.498;2023-02-24T01:08:52;96687.19;;;3.04;98.17
57442;BME280;43284;47.042;15.498;2023-02-24T01:11:26;96677.09;;;2.95;97.94
57442;BME280;43284;47.042;15.498;2023-02-24T01:14:13;96673.81;;;2.89;97.83
57442;BME280;43284;47.042;15.498;2023-02-24T01:16:41;96671.22;;;2.89;97.78
57442;BME280;43284;47.042;15.498;2023-02-24T01:19:09;96666.16;;;2.86;97.64
57442;BME280;43284;47.042;15.498;2023-02-24T01:21:35;96663.63;;;2.83;97.29
57442;BME280;43284;47.042;15.498;2023-02-24T01:24:01;96658.56;;;2.80;96.98
57442;BME280;43284;47.042;15.498;2023-02-24T01:26:27;96661.41;;;2.70;97.02
57442;BME280;43284;47.042;15.498;2023-02-24T01:28:53;96652.03;;;2.67;97.34
57442;BME280;43284;47.042;15.498;2023-02-24T01:31:20;96653.81;;;2.65;97.42
57442;BME280;43284;47.042;15.498;2023-02-24T01:33:50;96647.84;;;2.61;97.26
57442;BME280;43284;47.042;15.498;2023-02-24T01:36:21;96643.59;;;2.60;97.87
57442;BME280;43284;47.042;15.498;2023-02-24T01:38:50;96646.28;;;2.56;97.45
57442;BME280;43284;47.042;15.498;2023-02-24T01:41:22;96639.44;;;2.55;97.54
57442;BME280;43284;47.042;15.498;2023-02-24T01:43:56;96637.91;;;2.47;97.45
57442;BME280;43284;47.042;15.498;2023-02-24T01:46:24;96634.50;;;2.45;97.71
57442;BME280;43284;47.042;15.498;2023-02-24T01:48:55;96631.94;;;2.45;97.93
57442;BME280;43284;47.042;15.498;2023-02-24T01:51:23;96634.50;;;2.45;98.27
57442;BME280;43284;47.042;15.498;2023-02-24T01:53:49;96636.19;;;2.46;97.88
57442;BME280;43284;47.042;15.498;2023-02-24T01:56:15;96631.03;;;2.46;97.85
57442;BME280;43284;47.042;15.498;2023-02-24T01:58:41;96624.22;;;2.44;97.60
57442;BME280;43284;47.042;15.498;2023-02-24T02:01:08;96626.81;;;2.42;98.03
57442;BME280;43284;47.042;15.498;2023-02-24T02:03:39;96628.66;;;2.39;97.83
57442;BME280;43284;47.042;15.498;2023-02-24T02:06:08;96622.75;;;2.34;97.56
57442;BME280;43284;47.042;15.498;2023-02-24T02:08:38;96624.47;;;2.33;97.81
57442;BME280;43284;47.042;15.498;2023-02-24T02:11:08;96625.31;;;2.34;98.16
57442;BME280;43284;47.042;15.498;2023-02-24T02:13:36;96630.44;;;2.35;98.51
57442;BME280;43284;47.042;15.498;2023-02-24T02:19:08;96627.00;;;2.36;98.34
57442;BME280;43284;47.042;15.498;2023-02-24T02:24:50;96639.00;;;2.37;98.38
57442;BME280;43284;47.042;15.498;2023-02-24T02:27:42;96634.75;;;2.36;98.56
57442;BME280;43284;47.042;15.498;2023-02-24T02:30:46;96636.41;;;2.39;98.61
57442;BME280;43284;47.042;15.498;2023-02-24T02:36:31;96635.50;;;2.40;98.51
57442;BME280;43284;47.042;15.498;2023-02-24T02:39:12;96639.78;;;2.41;98.55
57442;BME280;43284;47.042;15.498;2023-02-24T02:45:23;96621.66;;;2.42;98.66
57442;BME280;43284;47.042;15.498;2023-02-24T02:48:00;96616.50;;;2.42;98.80
57442;BME280;43284;47.042;15.498;2023-02-24T02:50:37;96623.41;;;2.42;98.90
57442;BME280;43284;47.042;15.498;2023-02-24T02:53:19;96613.94;;;2.42;98.94
57442;BME280;43284;47.042;15.498;2023-02-24T02:56:10;96615.66;;;2.43;99.11
57442;BME280;43284;47.042;15.498;2023-02-24T02:58:42;96612.00;;;2.51;99.34
57442;BME280;43284;47.042;15.498;2023-02-24T03:01:15;96615.38;;;2.54;99.34
57442;BME280;43284;47.042;15.498;2023-02-24T03:03:46;96607.63;;;2.54;99.06
57442;BME280;43284;47.042;15.498;2023-02-24T03:09:24;96611.09;;;2.53;99.26
57442;BME280;43284;47.042;15.498;2023-02-24T03:11:45;96611.16;;;2.52;99.45
57442;BME280;43284;47.042;15.498;2023-02-24T03:14:19;96614.69;;;2.47;98.85
57442;BME280;43284;47.042;15.498;2023-02-24T03:16:47;96618.97;;;2.47;99.23
57442;BME280;43284;47.042;15.498;2023-02-24T03:19:17;96617.25;;;2.47;99.03
57442;BME280;43284;47.042;15.498;2023-02-24T03:21:51;96616.47;;;2.44;99.25
57442;BME280;43284;47.042;15.498;2023-02-24T03:24:22;96613.88;;;2.45;99.75
57442;BME280;43284;47.042;15.498;2023-02-24T03:29:42;96610.41;;;2.46;99.66
57442;BME280;43284;47.042;15.498;2023-02-24T03:32:20;96611.19;;;2.48;99.93
57442;BME280;43284;47.042;15.498;2023-02-24T03:34:59;96610.34;;;2.50;99.87
57442;BME280;43284;47.042;15.498;2023-02-24T03:37:29;96606.94;;;2.47;99.31
57442;BME280;43284;47.042;15.498;2023-02-24T03:39:59;96602.66;;;2.46;99.70
57442;BME280;43284;47.042;15.498;2023-02-24T03:42:33;96608.72;;;2.45;99.70
57442;BME280;43284;47.042;15.498;2023-02-24T03:45:00;96595.81;;;2.45;99.70
57442;BME280;43284;47.042;15.498;2023-02-24T03:47:26;96598.41;;;2.45;99.65
57442;BME280;43284;47.042;15.498;2023-02-24T03:49:52;96589.75;;;2.46;100.00
57442;BME280;43284;47.042;15.498;2023-02-24T04:03:36;96585.38;;;2.50;100.00
57442;BME280;43284;47.042;15.498;2023-02-24T04:09:17;96584.44;;;2.53;100.00
57442;BME280;43284;47.042;15.498;2023-02-24T04:12:06;96585.34;;;2.52;100.00
57442;BME280;43284;47.042;15.498;2023-02-24T04:14:44;96590.56;;;2.48;99.82
57442;BME280;43284;47.042;15.498;2023-02-24T04:17:27;96582.81;;;2.48;100.00
57442;BME280;43284;47.042;15.498;2023-02-24T04:19:59;96581.97;;;2.50;100.00
57442;BME280;43284;47.042;15.498;2023-02-24T04:22:34;96572.47;;;2.50;100.00
57442;BME280;43284;47.042;15.498;2023-02-24T04:25:01;96566.38;;;2.53;100.00
57442;BME280;43284;47.042;15.498;2023-02-24T04:27:30;96565.50;;;2.54;100.00
57442;BME280;43284;47.042;15.498;2023-02-24T04:29:58;96569.88;;;2.52;99.97
57442;BME280;43284;47.042;15.498;2023-02-24T04:32:28;96565.56;;;2.51;100.00
57442;BME280;43284;47.042;15.498;2023-02-24T04:35:05;96554.38;;;2.52;100.00
57442;BME280;43284;47.042;15.498;2023-02-24T04:37:32;96562.97;;;2.52;100.00
57442;BME280;43284;47.042;15.498;2023-02-24T04:40:03;96561.25;;;2.51;100.00
57442;BME280;43284;47.042;15.498;2023-02-24T04:42:35;96562.03;;;2.55;100.00
57442;BME280;43284;47.042;15.498;2023-02-24T04:45:05;96563.78;;;2.54;100.00
57442;BME280;43284;47.042;15.498;2023-02-24T04:47:34;96559.47;;;2.55;100.00
57442;BME280;43284;47.042;15.498;2023-02-24T04:50:02;96554.28;;;2.55;100.00
57442;BME280;43284;47.042;15.498;2023-02-24T04:52:32;96559.34;;;2.58;100.00
57442;BME280;43284;47.042;15.498;2023-02-24T04:54:58;96558.56;;;2.56;100.00
57442;BME280;43284;47.042;15.498;2023-02-24T04:57:23;96554.31;;;2.53;100.00
57442;BME280;43284;47.042;15.498;2023-02-24T04:59:49;96553.53;;;2.51;100.00
57442;BME280;43284;47.042;15.498;2023-02-24T05:02:21;96549.25;;;2.50;100.00
57442;BME280;43284;47.042;15.498;2023-02-24T05:04:46;96547.56;;;2.49;100.00
57442;BME280;43284;47.042;15.498;2023-02-24T05:07:14;96543.38;;;2.45;100.00
57442;BME280;43284;47.042;15.498;2023-02-24T05:09:40;96536.50;;;2.45;100.00
57442;BME280;43284;47.042;15.498;2023-02-24T05:12:06;96535.59;;;2.46;100.00
57442;BME280;43284;47.042;15.498;2023-02-24T05:14:34;96530.50;;;2.45;100.00
57442;BME280;43284;47.042;15.498;2023-02-24T05:17:00;96532.19;;;2.44;100.00
57442;BME280;43284;47.042;15.498;2023-02-24T05:19:26;96532.16;;;2.46;100.00
57442;BME280;43284;47.042;15.498;2023-02-24T05:22:10;96534.78;;;2.44;100.00
57442;BME280;43284;47.042;15.498;2023-02-24T05:24:38;96530.50;;;2.45;100.00
57442;BME280;43284;47.042;15.498;2023-02-24T05:27:05;96526.16;;;2.45;100.00
57442;BME280;43284;47.042;15.498;2023-02-24T05:29:33;96526.16;;;2.45;100.00
57442;BME280;43284;47.042;15.498;2023-02-24T05:31:59;96521.00;;;2.45;100.00
57442;BME280;43284;47.042;15.498;2023-02-24T05:34:28;96510.72;;;2.44;100.00
57442;BME280;43284;47.042;15.498;2023-02-24T05:36:58;96505.59;;;2.42;100.00
57442;BME280;43284;47.042;15.498;2023-02-24T05:39:26;96507.34;;;2.42;100.00
57442;BME280;43284;47.042;15.498;2023-02-24T05:41:53;96506.50;;;2.41;100.00
57442;BME280;43284;47.042;15.498;2023-02-24T05:44:23;96514.22;;;2.43;100.00
57442;BME280;43284;47.042;15.498;2023-02-24T05:46:53;96506.50;;;2.41;100.00
57442;BME280;43284;47.042;15.498;2023-02-24T05:49:32;96510.84;;;2.39;100.00
57442;BME280;43284;47.042;15.498;2023-02-24T05:52:00;96513.44;;;2.39;100.00
57442;BME280;43284;47.042;15.498;2023-02-24T05:54:29;96508.38;;;2.36;100.00
57442;BME280;43284;47.042;15.498;2023-02-24T05:57:08;96504.91;;;2.36;100.00
57442;BME280;43284;47.042;15.498;2023-02-24T05:59:37;96505.78;;;2.36;100.00
57442;BME280;43284;47.042;15.498;2023-02-24T06:02:07;96513.53;;;2.36;100.00
57442;BME280;43284;47.042;15.498;2023-02-24T06:04:35;96508.38;;;2.36;100.00
57442;BME280;43284;47.042;15.498;2023-02-24T06:07:06;96503.22;;;2.36;100.00
57442;BME280;43284;47.042;15.498;2023-02-24T06:09:38;96502.41;;;2.34;100.00
57442;BME280;43284;47.042;15.498;2023-02-24T06:12:09;96499.03;;;2.32;100.00
57442;BME280;43284;47.042;15.498;2023-02-24T06:14:35;96493.00;;;2.32;100.00
57442;BME280;43284;47.042;15.498;2023-02-24T06:17:01;96494.72;;;2.31;100.00
57442;BME280;43284;47.042;15.498;2023-02-24T06:19:27;96496.44;;;2.32;100.00
57442;BME280;43284;47.042;15.498;2023-02-24T06:21:56;96499.84;;;2.33;100.00
57442;BME280;43284;47.042;15.498;2023-02-24T06:24:30;96512.75;;;2.33;100.00
57442;BME280;43284;47.042;15.498;2023-02-24T06:26:57;96502.47;;;2.31;100.00
57442;BME280;43284;47.042;15.498;2023-02-24T06:29:28;96510.53;;;2.19;99.70
57442;BME280;43284;47.042;15.498;2023-02-24T06:31:55;96519.31;;;2.12;99.31
57442;BME280;43284;47.042;15.498;2023-02-24T06:34:24;96515.84;;;2.13;99.53
57442;BME280;43284;47.042;15.498;2023-02-24T06:36:52;96513.41;;;2.08;99.95
57442;BME280;43284;47.042;15.498;2023-02-24T06:39:18;96514.22;;;2.09;100.00
57442;BME280;43284;47.042;15.498;2023-02-24T06:41:44;96511.63;;;2.10;100.00
57442;BME280;43284;47.042;15.498;2023-02-24T06:44:13;96497.84;;;2.11;100.00
57442;BME280;43284;47.042;15.498;2023-02-24T06:46:38;96499.47;;;2.14;100.00
57442;BME280;43284;47.042;15.498;2023-02-24T06:49:05;96501.19;;;2.15;100.00
57442;BME280;43284;47.042;15.498;2023-02-24T06:51:31;96504.59;;;2.17;100.00
57442;BME280;43284;47.042;15.498;2023-02-24T06:53:58;96503.56;;;2.22;100.00
57442;BME280;43284;47.042;15.498;2023-02-24T06:56:25;96503.63;;;2.21;100.00
57442;BME280;43284;47.042;15.498;2023-02-24T06:58:53;96504.47;;;2.21;100.00
57442;BME280;43284;47.042;15.498;2023-02-24T07:01:25;96501.81;;;2.23;100.00
57442;BME280;43284;47.042;15.498;2023-02-24T07:03:53;96499.19;;;2.26;100.00
57442;BME280;43284;47.042;15.498;2023-02-24T07:06:38;96505.88;;;2.32;100.00
57442;BME280;43284;47.042;15.498;2023-02-24T07:09:10;96502.34;;;2.36;100.00
57442;BME280;43284;47.042;15.498;2023-02-24T07:11:41;96495.22;;;2.45;100.00
57442;BME280;43284;47.042;15.498;2023-02-24T07:14:09;96488.22;;;2.49;100.00
57442;BME280;43284;47.042;15.498;2023-02-24T07:16:36;96494.88;;;2.58;100.00
57442;BME280;43284;47.042;15.498;2023-02-24T07:19:06;96485.31;;;2.61;100.00
57442;BME280;43284;47.042;15.498;2023-02-24T07:21:37;96489.50;;;2.65;100.00
57442;BME280;43284;47.042;15.498;2023-02-24T07:24:12;96491.91;;;2.72;100.00
57442;BME280;43284;47.042;15.498;2023-02-24T07:26:39;96494.31;;;2.78;100.00
57442;BME280;43284;47.042;15.498;2023-02-24T07:29:12;96480.41;;;2.82;100.00
57442;BME280;43284;47.042;15.498;2023-02-24T07:31:38;96491.47;;;2.87;100.00
57442;BME280;43284;47.042;15.498;2023-02-24T07:34:04;96484.38;;;2.95;100.00
57442;BME280;43284;47.042;15.498;2023-02-24T07:36:31;96484.88;;;3.06;100.00
57442;BME280;43284;47.042;15.498;2023-02-24T07:39:04;96478.69;;;3.12;100.00
57442;BME280;43284;47.042;15.498;2023-02-24T07:41:32;96488.78;;;3.20;100.00
57442;BME280;43284;47.042;15.498;2023-02-24T07:43:58;96479.25;;;3.22;100.00
57442;BME280;43284;47.042;15.498;2023-02-24T07:46:27;96479.94;;;3.27;100.00
57442;BME280;43284;47.042;15.498;2023-02-24T07:48:55;96475.59;;;3.29;100.00
57442;BME280;43284;47.042;15.498;2023-02-24T07:51:23;96472.97;;;3.30;100.00
57442;BME280;43284;47.042;15.498;2023-02-24T07:53:51;96468.59;;;3.33;100.00
57442;BME280;43284;47.042;15.498;2023-02-24T07:56:21;96465.91;;;3.36;100.00
57442;BME280;43284;47.042;15.498;2023-02-24T07:59:01;96462.34;;;3.40;100.00
57442;BME280;43284;47.042;15.498;2023-02-24T08:01:34;96456.22;;;3.42;100.00
57442;BME280;43284;47.042;15.498;2023-02-24T08:04:05;96450.19;;;3.43;100.00
57442;BME280;43284;47.042;15.498;2023-02-24T08:06:38;96449.16;;;3.47;100.00
57442;BME280;43284;47.042;15.498;2023-02-24T08:09:13;96446.47;;;3.52;100.00
57442;BME280;43284;47.042;15.498;2023-02-24T08:14:13;96436.44;;;3.95;100.00
57442;BME280;43284;47.042;15.498;2023-02-24T08:16:43;96437.84;;;4.03;100.00
57442;BME280;43284;47.042;15.498;2023-02-24T08:19:14;96434.28;;;4.07;100.00
57442;BME280;43284;47.042;15.498;2023-02-24T08:21:48;96423.66;;;4.15;100.00
57442;BME280;43284;47.042;15.498;2023-02-24T08:24:22;96418.22;;;4.23;100.00
57442;BME280;43284;47.042;15.498;2023-02-24T08:26:50;96420.50;;;4.30;100.00
57442;BME280;43284;47.042;15.498;2023-02-24T08:29:36;96418.94;;;4.50;100.00
57442;BME280;43284;47.042;15.498;2023-02-24T08:32:26;96412.09;;;4.72;100.00
57442;BME280;43284;47.042;15.498;2023-02-24T08:35:03;96404.28;;;4.96;99.02
57442;BME280;43284;47.042;15.498;2023-02-24T08:37:30;96402.22;;;5.48;90.48
57442;BME280;43284;47.042;15.498;2023-02-24T08:39:59;96391.91;;;6.10;82.40
57442;BME280;43284;47.042;15.498;2023-02-24T08:42:25;96388.13;;;6.37;80.99
57442;BME280;43284;47.042;15.498;2023-02-24T08:45:00;96388.16;;;6.56;77.67
57442;BME280;43284;47.042;15.498;2023-02-24T08:47:27;96380.75;;;6.66;78.04
57442;BME280;43284;47.042;15.498;2023-02-24T08:49:58;96376.00;;;6.76;77.85
57442;BME280;43284;47.042;15.498;2023-02-24T08:52:25;96379.00;;;6.86;76.59
57442;BME280;43284;47.042;15.498;2023-02-24T08:54:52;96378.28;;;7.01;76.41
57442;BME280;43284;47.042;15.498;2023-02-24T08:57:25;96376.47;;;7.03;76.00
57442;BME280;43284;47.042;15.498;2023-02-24T08:59:51;96370.72;;;7.33;74.77
57442;BME280;43284;47.042;15.498;2023-02-24T09:02:24;96364.53;;;7.35;75.39
57442;BME280;43284;47.042;15.498;2023-02-24T09:04:56;96364.91;;;7.45;74.24
57442;BME280;43284;47.042;15.498;2023-02-24T09:07:25;96364.56;;;7.53;74.09
57442;BME280;43284;47.042;15.498;2023-02-24T09:09:52;96357.00;;;7.66;73.63
57442;BME280;43284;47.042;15.498;2023-02-24T09:12:23;96358.41;;;7.71;73.58
57442;BME280;43284;47.042;15.498;2023-02-24T09:14:54;96353.22;;;7.71;72.89
57442;BME280;43284;47.042;15.498;2023-02-24T09:17:24;96344.88;;;7.82;73.25
57442;BME280;43284;47.042;15.498;2023-02-24T09:20:21;96344.84;;;7.99;72.16
57442;BME280;43284;47.042;15.498;2023-02-24T09:22:50;96343.16;;;8.16;72.53
57442;BME280;43284;47.042;15.498;2023-02-24T09:25:26;96341.09;;;8.38;70.20
57442;BME280;43284;47.042;15.498;2023-02-24T09:30:42;96335.44;;;8.63;69.10
57442;BME280;43284;47.042;15.498;2023-02-24T09:33:26;96338.81;;;8.97;67.92
57442;BME280;43284;47.042;15.498;2023-02-24T09:35:55;96336.97;;;8.83;66.50
57442;BME280;43284;47.042;15.498;2023-02-24T09:38:28;96333.84;;;8.93;66.58
57442;BME280;43284;47.042;15.498;2023-02-24T09:41:43;96330.66;;;8.87;65.13
57442;BME280;43284;47.042;15.498;2023-02-24T09:44:33;96333.19;;;8.89;65.55
57442;BME280;43284;47.042;15.498;2023-02-24T09:47:17;96332.75;;;8.97;65.59
57442;BME280;43284;47.042;15.498;2023-02-24T09:52:57;96327.94;;;9.21;65.05
57442;BME280;43284;47.042;15.498;2023-02-24T09:55:50;96324.84;;;9.44;63.87
57442;BME280;43284;47.042;15.498;2023-02-24T10:03:59;96304.63;;;9.93;63.22
57442;BME280;43284;47.042;15.498;2023-02-24T10:06:44;96307.47;;;9.59;61.77
57442;BME280;43284;47.042;15.498;2023-02-24T10:11:54;96298.75;;;10.03;61.41
57442;BME280;43284;47.042;15.498;2023-02-24T10:17:30;96290.25;;;10.30;60.39
57442;BME280;43284;47.042;15.498;2023-02-24T10:20:21;96284.91;;;10.31;60.47
57442;BME280;43284;47.042;15.498;2023-02-24T10:23:10;96278.91;;;10.44;59.56
57442;BME280;43284;47.042;15.498;2023-02-24T10:25:46;96280.78;;;10.42;58.44
57442;BME280;43284;47.042;15.498;2023-02-24T10:31:12;96276.75;;;10.50;59.32
57442;BME280;43284;47.042;15.498;2023-02-24T10:33:55;96276.00;;;10.63;58.58
57442;BME280;43284;47.042;15.498;2023-02-24T10:36:22;96264.91;;;10.86;57.75
57442;BME280;43284;47.042;15.498;2023-02-24T10:39:19;96259.22;;;10.80;58.11
57442;BME280;43284;47.042;15.498;2023-02-24T10:41:57;96255.44;;;10.71;56.44
57442;BME280;43284;47.042;15.498;2023-02-24T10:44:27;96254.00;;;10.80;57.40
57442;BME280;43284;47.042;15.498;2023-02-24T10:47:11;96248.31;;;10.73;56.86
57442;BME280;43284;47.042;15.498;2023-02-24T10:49:40;96248.72;;;10.67;55.91
57442;BME280;43284;47.042;15.498;2023-02-24T10:52:12;96246.09;;;10.67;56.27
57442;BME280;43284;47.042;15.498;2023-02-24T10:54:57;96245.13;;;10.55;56.92
57442;BME280;43284;47.042;15.498;2023-02-24T10:57:54;96228.09;;;10.62;57.44
57442;BME280;43284;47.042;15.498;2023-02-24T11:00:38;96223.09;;;10.59;57.46
57442;BME280;43284;47.042;15.498;2023-02-24T11:03:27;96214.88;;;10.51;56.99
57442;BME280;43284;47.042;15.498;2023-02-24T11:06:23;96206.28;;;10.63;56.68
57442;BME280;43284;47.042;15.498;2023-02-24T11:09:05;96210.31;;;10.82;57.64
57442;BME280;43284;47.042;15.498;2023-02-24T11:12:13;96198.56;;;10.75;57.88
57442;BME280;43284;47.042;15.498;2023-02-24T11:17:58;96184.66;;;10.74;56.79
57442;BME280;43284;47.042;15.498;2023-02-24T11:20:41;96189.34;;;10.96;56.79
57442;BME280;43284;47.042;15.498;2023-02-24T11:23:12;96177.13;;;11.09;56.78
57442;BME280;43284;47.042;15.498;2023-02-24T11:25:41;96166.44;;;11.12;55.55
57442;BME280;43284;47.042;15.498;2023-02-24T11:34:15;96158.41;;;11.16;55.36
57442;BME280;43284;47.042;15.498;2023-02-24T11:37:00;96152.34;;;11.53;54.67
57442;BME280;43284;47.042;15.498;2023-02-24T11:39:50;96141.13;;;11.64;54.48
57442;BME280;43284;47.042;15.498;2023-02-24T11:42:31;96147.81;;;11.81;54.91
57442;BME280;43284;47.042;15.498;2023-02-24T11:48:17;96134.94;;;11.78;54.89
57442;BME280;43284;47.042;15.498;2023-02-24T11:51:01;96121.50;;;12.08;54.43
57442;BME280;43284;47.042;15.498;2023-02-24T11:53:39;96114.31;;;12.23;53.69
57442;BME280;43284;47.042;15.498;2023-02-24T11:56:13;96115.00;;;12.14;52.53
57442;BME280;43284;47.042;15.498;2023-02-24T11:58:47;96108.00;;;12.74;52.44
57442;BME280;43284;47.042;15.498;2023-02-24T12:07:07;96095.81;;;12.62;51.39
57442;BME280;43284;47.042;15.498;2023-02-24T12:09:48;96088.88;;;12.61;51.47
57442;BME280;43284;47.042;15.498;2023-02-24T12:12:17;96089.16;;;12.69;52.18
57442;BME280;43284;47.042;15.498;2023-02-24T12:14:50;96082.56;;;12.63;51.95
57442;BME280;43284;47.042;15.498;2023-02-24T12:17:34;96075.03;;;12.94;50.14
57442;BME280;43284;47.042;15.498;2023-02-24T12:20:20;96063.22;;;12.88;50.03
57442;BME280;43284;47.042;15.498;2023-02-24T12:23:30;96062.97;;;12.91;51.96
57442;BME280;43284;47.042;15.498;2023-02-24T12:26:23;96058.34;;;12.84;50.21
57442;BME280;43284;47.042;15.498;2023-02-24T12:37:33;96039.59;;;12.77;51.41
57442;BME280;43284;47.042;15.498;2023-02-24T12:42:46;96025.63;;;12.65;51.07
57442;BME280;43284;47.042;15.498;2023-02-24T12:45:24;96028.41;;;12.75;50.21
57442;BME280;43284;47.042;15.498;2023-02-24T12:53:29;96006.34;;;13.00;49.75
57442;BME280;43284;47.042;15.498;2023-02-24T12:56:20;96000.13;;;12.90;51.04
57442;BME280;43284;47.042;15.498;2023-02-24T12:58:50;95993.13;;;13.02;48.68
57442;BME280;43284;47.042;15.498;2023-02-24T13:01:27;95988.00;;;13.23;50.22
57442;BME280;43284;47.042;15.498;2023-02-24T13:04:33;95980.97;;;13.57;47.79
57442;BME280;43284;47.042;15.498;2023-02-24T13:10:19;95970.53;;;13.78;48.16
57442;BME280;43284;47.042;15.498;2023-02-24T13:13:23;95971.66;;;13.96;48.15
57442;BME280;43284;47.042;15.498;2023-02-24T13:15:50;95961.59;;;14.13;47.17
57442;BME280;43284;47.042;15.498;2023-02-24T13:21:21;95966.31;;;14.19;46.74
57442;BME280;43284;47.042;15.498;2023-02-24T13:23:58;95953.13;;;14.30;45.89
57442;BME280;43284;47.042;15.498;2023-02-24T13:26:29;95964.31;;;14.43;45.09
57442;BME280;43284;47.042;15.498;2023-02-24T13:29:13;95953.63;;;14.45;45.85
57442;BME280;43284;47.042;15.498;2023-02-24T13:31:49;95948.84;;;14.71;44.76
57442;BME280;43284;47.042;15.498;2023-02-24T13:36:50;95941.16;;;14.79;46.25
57442;BME280;43284;47.042;15.498;2023-02-24T13:39:30;95938.03;;;14.95;45.17
57442;BME280;43284;47.042;15.498;2023-02-24T13:42:29;95929.28;;;14.85;44.38
57442;BME280;43284;47.042;15.498;2023-02-24T13:45:17;95923.25;;;15.04;43.80
57442;BME280;43284;47.042;15.498;2023-02-24T13:48:21;95921.53;;;14.93;43.94
57442;BME280;43284;47.042;15.498;2023-02-24T14:01:28;95911.25;;;15.11;42.66
57442;BME280;43284;47.042;15.498;2023-02-24T14:04:09;95907.25;;;14.86;42.55
57442;BME280;43284;47.042;15.498;2023-02-24T14:06:38;95904.38;;;14.89;42.80
57442;BME280;43284;47.042;15.498;2023-02-24T14:09:05;95901.38;;;15.03;42.29
57442;BME280;43284;47.042;15.498;2023-02-24T14:11:34;95900.56;;;15.13;43.11
57442;BME280;43284;47.042;15.498;2023-02-24T14:14:00;95899.41;;;14.96;41.10
57442;BME280;43284;47.042;15.498;2023-02-24T14:16:31;95890.66;;;14.95;42.27
57442;BME280;43284;47.042;15.498;2023-02-24T14:19:01;95887.69;;;15.10;41.13
57442;BME280;43284;47.042;15.498;2023-02-24T14:21:30;95888.06;;;15.05;41.78
57442;BME280;43284;47.042;15.498;2023-02-24T14:24:03;95876.91;;;15.22;41.69
57442;BME280;43284;47.042;15.498;2023-02-24T14:26:55;95869.34;;;14.98;41.72
57442;BME280;43284;47.042;15.498;2023-02-24T14:29:24;95866.50;;;15.11;41.52
57442;BME280;43284;47.042;15.498;2023-02-24T14:31:53;95856.50;;;15.15;41.25
57442;BME280;43284;47.042;15.498;2023-02-24T14:34:25;95860.94;;;15.04;40.66
57442;BME280;43284;47.042;15.498;2023-02-24T14:36:54;95862.28;;;14.99;40.60
57442;BME280;43284;47.042;15.498;2023-02-24T14:39:26;95859.97;;;14.65;40.41
57442;BME280;43284;47.042;15.498;2023-02-24T14:42:22;95848.84;;;14.92;40.54
57442;BME280;43284;47.042;15.498;2023-02-24T14:44:54;95850.59;;;14.82;40.64
57442;BME280;43284;47.042;15.498;2023-02-24T14:47:22;95845.09;;;14.85;40.11
57442;BME280;43284;47.042;15.498;2023-02-24T14:50:03;95846.03;;;14.84;41.18
57442;BME280;43284;47.042;15.498;2023-02-24T14:52:38;95841.84;;;14.72;40.42
57442;BME280;43284;47.042;15.498;2023-02-24T14:55:11;95841.88;;;14.81;40.34
57442;BME280;43284;47.042;15.498;2023-02-24T14:58:10;95832.84;;;14.74;39.22
57442;BME280;43284;47.042;15.498;2023-02-24T15:01:02;95829.78;;;14.69;39.88
57442;BME280;43284;47.042;15.498;2023-02-24T15:03:38;95826.53;;;14.56;39.31
57442;BME280;43284;47.042;15.498;2023-02-24T15:06:35;95833.38;;;14.47;40.26
57442;BME280;43284;47.042;15.498;2023-02-24T15:09:13;95827.41;;;14.35;39.31
57442;BME280;43284;47.042;15.498;2023-02-24T15:11:41;95828.91;;;14.38;40.66
57442;BME280;43284;47.042;15.498;2023-02-24T15:14:25;95829.53;;;14.20;40.34
57442;BME280;43284;47.042;15.498;2023-02-24T15:16:55;95825.09;;;14.21;40.27